sensor_id;sensor_type;location;lat;lon;timestamp;pressure;altitude;pressure_sealevel;temperature
68911;BMP180;55953;51.650;-0.522;2023-04-29T00:00:53;100937.00;;;9.00
68911;BMP180;55953;51.650;-0.522;2023-04-29T00:03:20;100936.60;;;9.00
68911;BMP180;55953;51.650;-0.522;2023-04-29T00:05:49;100939.20;;;8.96
68911;BMP180;55953;51.650;-0.522;2023-04-29T00:08:17;100937.60;;;9.00
68911;BMP180;55953;51.650;-0.522;2023-04-29T00:10:45;100939.80;;;9.00
68911;BMP180;55953;51.650;-0.522;2023-04-29T00:13:13;100938.40;;;9.00
68911;BMP180;55953;51.650;-0.522;2023-04-29T00:15:41;100935.60;;;9.00
68911;BMP180;55953;51.650;-0.522;2023-04-29T00:18:09;100937.80;;;8.90
68911;BMP180;55953;51.650;-0.522;2023-04-29T00:20:38;100941.00;;;8.80
68911;BMP180;55953;51.650;-0.522;2023-04-29T00:23:06;100938.80;;;8.70
68911;BMP180;55953;51.650;-0.522;2023-04-29T00:25:34;100944.00;;;8.76
68911;BMP180;55953;51.650;-0.522;2023-04-29T00:28:02;100936.20;;;8.80
68911;BMP180;55953;51.650;-0.522;2023-04-29T00:30:31;100940.40;;;8.70
68911;BMP180;55953;51.650;-0.522;2023-04-29T00:33:02;100941.80;;;8.60
68911;BMP180;55953;51.650;-0.522;2023-04-29T00:35:30;100943.60;;;8.60
68911;BMP180;55953;51.650;-0.522;2023-04-29T00:37:58;100946.80;;;8.44
68911;BMP180;55953;51.650;-0.522;2023-04-29T00:40:27;100944.20;;;8.40
68911;BMP180;55953;51.650;-0.522;2023-04-29T00:42:55;100948.20;;;8.32
68911;BMP180;55953;51.650;-0.522;2023-04-29T00:45:24;100947.80;;;8.30
68911;BMP180;55953;51.650;-0.522;2023-04-29T00:47:52;100948.20;;;8.36
68911;BMP180;55953;51.650;-0.522;2023-04-29T00:50:21;100950.00;;;8.30
68911;BMP180;55953;51.650;-0.522;2023-04-29T00:52:50;100949.20;;;8.22
68911;BMP180;55953;51.650;-0.522;2023-04-29T00:55:19;100951.20;;;8.30
68911;BMP180;55953;51.650;-0.522;2023-04-29T00:57:47;100946.00;;;8.30
68911;BMP180;55953;51.650;-0.522;2023-04-29T01:00:19;100954.80;;;8.30
68911;BMP180;55953;51.650;-0.522;2023-04-29T01:02:48;100958.00;;;8.20
68911;BMP180;55953;51.650;-0.522;2023-04-29T01:05:16;100954.40;;;8.20
68911;BMP180;55953;51.650;-0.522;2023-04-29T01:13:57;100948.80;;;8.10
68911;BMP180;55953;51.650;-0.522;2023-04-29T01:16:49;100956.20;;;8.00
68911;BMP180;55953;51.650;-0.522;2023-04-29T01:19:47;100959.20;;;7.90
68911;BMP180;55953;51.650;-0.522;2023-04-29T01:22:17;100957.80;;;7.90
68911;BMP180;55953;51.650;-0.522;2023-04-29T01:24:45;100961.00;;;7.92
68911;BMP180;55953;51.650;-0.522;2023-04-29T01:27:28;100961.00;;;8.00
68911;BMP180;55953;51.650;-0.522;2023-04-29T01:39:26;100973.00;;;7.78
68911;BMP180;55953;51.650;-0.522;2023-04-29T01:42:45;100974.00;;;7.80
68911;BMP180;55953;51.650;-0.522;2023-04-29T01:45:18;100975.20;;;7.80
68911;BMP180;55953;51.650;-0.522;2023-04-29T01:47:51;100965.80;;;7.80
68911;BMP180;55953;51.650;-0.522;2023-04-29T01:50:20;100965.20;;;7.70
68911;BMP180;55953;51.650;-0.522;2023-04-29T01:52:48;100964.00;;;7.70
68911;BMP180;55953;51.650;-0.522;2023-04-29T01:55:17;100970.40;;;7.70
68911;BMP180;55953;51.650;-0.522;2023-04-29T01:58:17;100976.20;;;7.60
68911;BMP180;55953;51.650;-0.522;2023-04-29T02:01:01;100974.20;;;7.60
68911;BMP180;55953;51.650;-0.522;2023-04-29T02:03:31;100978.40;;;7.70
68911;BMP180;55953;51.650;-0.522;2023-04-29T02:06:00;100978.60;;;7.60
68911;BMP180;55953;51.650;-0.522;2023-04-29T02:08:29;100982.60;;;7.50
68911;BMP180;55953;51.650;-0.522;2023-04-29T02:10:58;100984.20;;;7.50
68911;BMP180;55953;51.650;-0.522;2023-04-29T02:13:33;100988.60;;;7.50
68911;BMP180;55953;51.650;-0.522;2023-04-29T02:16:13;100991.00;;;7.40
68911;BMP180;55953;51.650;-0.522;2023-04-29T02:19:02;100989.20;;;7.30
68911;BMP180;55953;51.650;-0.522;2023-04-29T02:21:30;100988.40;;;7.20
68911;BMP180;55953;51.650;-0.522;2023-04-29T02:23:59;100989.20;;;7.14
68911;BMP180;55953;51.650;-0.522;2023-04-29T02:26:27;100988.40;;;7.20
68911;BMP180;55953;51.650;-0.522;2023-04-29T02:28:55;100993.40;;;7.30
68911;BMP180;55953;51.650;-0.522;2023-04-29T02:31:24;100991.00;;;7.20
68911;BMP180;55953;51.650;-0.522;2023-04-29T02:33:53;100991.60;;;7.18
68911;BMP180;55953;51.650;-0.522;2023-04-29T02:36:22;100989.60;;;7.10
68911;BMP180;55953;51.650;-0.522;2023-04-29T02:38:52;100992.20;;;7.20
68911;BMP180;55953;51.650;-0.522;2023-04-29T02:41:22;100998.80;;;7.10
68911;BMP180;55953;51.650;-0.522;2023-04-29T02:43:50;100995.00;;;7.10
68911;BMP180;55953;51.650;-0.522;2023-04-29T02:46:18;101003.60;;;7.00
68911;BMP180;55953;51.650;-0.522;2023-04-29T02:48:46;100999.00;;;7.10
68911;BMP180;55953;51.650;-0.522;2023-04-29T02:51:14;100998.00;;;7.10
68911;BMP180;55953;51.650;-0.522;2023-04-29T02:53:42;101007.60;;;7.00
68911;BMP180;55953;51.650;-0.522;2023-04-29T02:56:10;101000.80;;;7.00
68911;BMP180;55953;51.650;-0.522;2023-04-29T02:58:38;101009.40;;;6.90
68911;BMP180;55953;51.650;-0.522;2023-04-29T03:01:06;101004.20;;;6.90
68911;BMP180;55953;51.650;-0.522;2023-04-29T03:03:34;101007.00;;;6.90
68911;BMP180;55953;51.650;-0.522;2023-04-29T03:06:03;101007.80;;;6.90
68911;BMP180;55953;51.650;-0.522;2023-04-29T03:08:31;101008.40;;;6.90
68911;BMP180;55953;51.650;-0.522;2023-04-29T03:10:59;101012.20;;;6.80
68911;BMP180;55953;51.650;-0.522;2023-04-29T03:13:27;101014.60;;;6.80
68911;BMP180;55953;51.650;-0.522;2023-04-29T03:15:54;101012.00;;;6.80
68911;BMP180;55953;51.650;-0.522;2023-04-29T03:18:25;101013.20;;;6.90
68911;BMP180;55953;51.650;-0.522;2023-04-29T03:20:53;101011.60;;;6.96
68911;BMP180;55953;51.650;-0.522;2023-04-29T03:23:21;101008.80;;;7.00
68911;BMP180;55953;51.650;-0.522;2023-04-29T03:25:49;101014.40;;;6.90
68911;BMP180;55953;51.650;-0.522;2023-04-29T03:28:16;101015.40;;;6.82
68911;BMP180;55953;51.650;-0.522;2023-04-29T03:30:45;101004.60;;;6.80
68911;BMP180;55953;51.650;-0.522;2023-04-29T03:33:13;101007.40;;;6.80
68911;BMP180;55953;51.650;-0.522;2023-04-29T03:35:40;101006.60;;;6.80
68911;BMP180;55953;51.650;-0.522;2023-04-29T03:38:17;101007.60;;;6.80
68911;BMP180;55953;51.650;-0.522;2023-04-29T03:40:47;101012.80;;;6.80
68911;BMP180;55953;51.650;-0.522;2023-04-29T03:43:16;101011.00;;;6.80
68911;BMP180;55953;51.650;-0.522;2023-04-29T03:45:44;101012.00;;;6.72
68911;BMP180;55953;51.650;-0.522;2023-04-29T03:48:13;101017.00;;;6.70
68911;BMP180;55953;51.650;-0.522;2023-04-29T03:50:41;101018.20;;;6.60
68911;BMP180;55953;51.650;-0.522;2023-04-29T03:53:09;101013.20;;;6.60
68911;BMP180;55953;51.650;-0.522;2023-04-29T03:55:37;101017.40;;;6.60
68911;BMP180;55953;51.650;-0.522;2023-04-29T03:58:05;101018.80;;;6.60
68911;BMP180;55953;51.650;-0.522;2023-04-29T04:00:33;101018.20;;;6.60
68911;BMP180;55953;51.650;-0.522;2023-04-29T04:03:03;101020.80;;;6.70
68911;BMP180;55953;51.650;-0.522;2023-04-29T04:05:33;101014.00;;;6.80
68911;BMP180;55953;51.650;-0.522;2023-04-29T04:08:06;101015.40;;;6.90
68911;BMP180;55953;51.650;-0.522;2023-04-29T04:10:34;101012.60;;;7.00
68911;BMP180;55953;51.650;-0.522;2023-04-29T04:13:04;101013.00;;;7.00
68911;BMP180;55953;51.650;-0.522;2023-04-29T04:15:32;101020.40;;;7.00
68911;BMP180;55953;51.650;-0.522;2023-04-29T04:18:00;101022.20;;;7.06
68911;BMP180;55953;51.650;-0.522;2023-04-29T04:20:28;101029.40;;;7.10
68911;BMP180;55953;51.650;-0.522;2023-04-29T04:22:56;101028.60;;;7.30
68911;BMP180;55953;51.650;-0.522;2023-04-29T04:25:27;101025.80;;;7.34
68911;BMP180;55953;51.650;-0.522;2023-04-29T04:28:03;101027.60;;;7.40
68911;BMP180;55953;51.650;-0.522;2023-04-29T04:30:46;101029.00;;;7.50
68911;BMP180;55953;51.650;-0.522;2023-04-29T04:33:14;101033.60;;;7.60
68911;BMP180;55953;51.650;-0.522;2023-04-29T04:35:43;101046.20;;;7.60
68911;BMP180;55953;51.650;-0.522;2023-04-29T04:38:11;101050.00;;;7.60
68911;BMP180;55953;51.650;-0.522;2023-04-29T04:40:41;101058.80;;;7.60
68911;BMP180;55953;51.650;-0.522;2023-04-29T04:43:33;101059.60;;;7.66
68911;BMP180;55953;51.650;-0.522;2023-04-29T04:46:13;101063.60;;;7.78
68911;BMP180;55953;51.650;-0.522;2023-04-29T04:48:49;101061.40;;;7.90
68911;BMP180;55953;51.650;-0.522;2023-04-29T04:51:18;101060.80;;;8.00
68911;BMP180;55953;51.650;-0.522;2023-04-29T04:53:47;101064.20;;;8.10
68911;BMP180;55953;51.650;-0.522;2023-04-29T04:56:20;101065.80;;;8.10
68911;BMP180;55953;51.650;-0.522;2023-04-29T04:58:48;101064.60;;;8.10
68911;BMP180;55953;51.650;-0.522;2023-04-29T05:01:16;101060.80;;;8.10
68911;BMP180;55953;51.650;-0.522;2023-04-29T05:03:44;101064.20;;;8.00
68911;BMP180;55953;51.650;-0.522;2023-04-29T05:06:12;101073.20;;;8.02
68911;BMP180;55953;51.650;-0.522;2023-04-29T05:08:41;101075.80;;;8.00
68911;BMP180;55953;51.650;-0.522;2023-04-29T05:11:20;101074.80;;;8.10
68911;BMP180;55953;51.650;-0.522;2023-04-29T05:14:03;101079.20;;;8.20
68911;BMP180;55953;51.650;-0.522;2023-04-29T05:16:31;101086.80;;;8.20
68911;BMP180;55953;51.650;-0.522;2023-04-29T05:18:59;101088.60;;;8.30
68911;BMP180;55953;51.650;-0.522;2023-04-29T05:21:30;101092.20;;;8.38
68911;BMP180;55953;51.650;-0.522;2023-04-29T05:23:58;101090.00;;;8.40
68911;BMP180;55953;51.650;-0.522;2023-04-29T05:26:26;101093.20;;;8.50
68911;BMP180;55953;51.650;-0.522;2023-04-29T05:28:56;101091.80;;;8.70
68911;BMP180;55953;51.650;-0.522;2023-04-29T05:31:24;101102.40;;;8.80
68911;BMP180;55953;51.650;-0.522;2023-04-29T05:33:53;101095.40;;;8.90
68911;BMP180;55953;51.650;-0.522;2023-04-29T05:36:20;101089.80;;;9.00
68911;BMP180;55953;51.650;-0.522;2023-04-29T05:38:48;101087.00;;;9.00
68911;BMP180;55953;51.650;-0.522;2023-04-29T05:41:18;101098.60;;;9.10
68911;BMP180;55953;51.650;-0.522;2023-04-29T05:44:24;101098.40;;;9.18
68911;BMP180;55953;51.650;-0.522;2023-04-29T05:46:52;101100.80;;;9.14
68911;BMP180;55953;51.650;-0.522;2023-04-29T05:49:19;101102.60;;;9.20
68911;BMP180;55953;51.650;-0.522;2023-04-29T05:51:47;101104.40;;;9.20
68911;BMP180;55953;51.650;-0.522;2023-04-29T05:54:15;101108.20;;;9.20
68911;BMP180;55953;51.650;-0.522;2023-04-29T05:56:45;101109.80;;;9.30
68911;BMP180;55953;51.650;-0.522;2023-04-29T05:59:13;101112.00;;;9.40
68911;BMP180;55953;51.650;-0.522;2023-04-29T06:01:45;101113.20;;;9.60
68911;BMP180;55953;51.650;-0.522;2023-04-29T06:04:13;101111.80;;;9.80
68911;BMP180;55953;51.650;-0.522;2023-04-29T06:07:07;101113.20;;;9.90
68911;BMP180;55953;51.650;-0.522;2023-04-29T06:09:58;101112.20;;;9.90
68911;BMP180;55953;51.650;-0.522;2023-04-29T06:12:26;101114.80;;;9.80
68911;BMP180;55953;51.650;-0.522;2023-04-29T06:14:54;101111.60;;;9.90
68911;BMP180;55953;51.650;-0.522;2023-04-29T06:17:22;101108.00;;;9.90
68911;BMP180;55953;51.650;-0.522;2023-04-29T06:19:51;101112.40;;;9.90
68911;BMP180;55953;51.650;-0.522;2023-04-29T06:22:20;101118.80;;;10.00
68911;BMP180;55953;51.650;-0.522;2023-04-29T06:24:50;101116.00;;;10.10
68911;BMP180;55953;51.650;-0.522;2023-04-29T06:27:39;101125.20;;;10.22
68911;BMP180;55953;51.650;-0.522;2023-04-29T06:30:08;101125.80;;;10.40
68911;BMP180;55953;51.650;-0.522;2023-04-29T06:32:38;101123.80;;;10.50
68911;BMP180;55953;51.650;-0.522;2023-04-29T06:35:07;101123.40;;;10.50
68911;BMP180;55953;51.650;-0.522;2023-04-29T06:37:54;101128.20;;;10.62
68911;BMP180;55953;51.650;-0.522;2023-04-29T06:40:46;101126.40;;;10.88
68911;BMP180;55953;51.650;-0.522;2023-04-29T06:43:36;101133.40;;;11.00
68911;BMP180;55953;51.650;-0.522;2023-04-29T06:46:34;101131.80;;;11.30
68911;BMP180;55953;51.650;-0.522;2023-04-29T06:49:23;101139.00;;;11.40
68911;BMP180;55953;51.650;-0.522;2023-04-29T06:51:50;101141.00;;;11.60
68911;BMP180;55953;51.650;-0.522;2023-04-29T06:54:18;101140.80;;;11.70
68911;BMP180;55953;51.650;-0.522;2023-04-29T06:56:49;101146.20;;;11.70
68911;BMP180;55953;51.650;-0.522;2023-04-29T06:59:17;101142.20;;;11.80
68911;BMP180;55953;51.650;-0.522;2023-04-29T07:01:45;101145.00;;;11.80
68911;BMP180;55953;51.650;-0.522;2023-04-29T07:04:19;101140.60;;;12.00
68911;BMP180;55953;51.650;-0.522;2023-04-29T07:06:47;101144.40;;;12.30
68911;BMP180;55953;51.650;-0.522;2023-04-29T07:09:15;101147.40;;;12.58
68911;BMP180;55953;51.650;-0.522;2023-04-29T07:11:43;101144.20;;;12.70
68911;BMP180;55953;51.650;-0.522;2023-04-29T07:14:11;101149.40;;;12.84
68911;BMP180;55953;51.650;-0.522;2023-04-29T07:16:39;101149.40;;;12.90
68911;BMP180;55953;51.650;-0.522;2023-04-29T07:19:10;101151.40;;;13.00
68911;BMP180;55953;51.650;-0.522;2023-04-29T07:21:37;101154.60;;;13.10
68911;BMP180;55953;51.650;-0.522;2023-04-29T07:24:05;101149.80;;;13.00
68911;BMP180;55953;51.650;-0.522;2023-04-29T07:26:33;101154.20;;;13.00
68911;BMP180;55953;51.650;-0.522;2023-04-29T07:29:01;101158.80;;;13.10
68911;BMP180;55953;51.650;-0.522;2023-04-29T07:31:29;101161.20;;;13.06
68911;BMP180;55953;51.650;-0.522;2023-04-29T07:33:57;101167.60;;;13.20
68911;BMP180;55953;51.650;-0.522;2023-04-29T07:36:25;101166.80;;;13.30
68911;BMP180;55953;51.650;-0.522;2023-04-29T07:38:55;101165.80;;;13.30
68911;BMP180;55953;51.650;-0.522;2023-04-29T07:41:23;101166.80;;;13.34
68911;BMP180;55953;51.650;-0.522;2023-04-29T07:43:51;101170.40;;;13.38
68911;BMP180;55953;51.650;-0.522;2023-04-29T07:46:19;101170.80;;;13.40
68911;BMP180;55953;51.650;-0.522;2023-04-29T07:48:47;101167.80;;;13.50
68911;BMP180;55953;51.650;-0.522;2023-04-29T07:51:16;101170.40;;;13.60
68911;BMP180;55953;51.650;-0.522;2023-04-29T07:53:43;101167.20;;;13.60
68911;BMP180;55953;51.650;-0.522;2023-04-29T07:56:11;101177.60;;;13.70
68911;BMP180;55953;51.650;-0.522;2023-04-29T07:58:42;101176.20;;;13.80
68911;BMP180;55953;51.650;-0.522;2023-04-29T08:01:10;101180.00;;;14.14
68911;BMP180;55953;51.650;-0.522;2023-04-29T08:03:39;101183.00;;;14.30
68911;BMP180;55953;51.650;-0.522;2023-04-29T08:06:09;101185.40;;;14.30
68911;BMP180;55953;51.650;-0.522;2023-04-29T08:08:37;101181.40;;;14.40
68911;BMP180;55953;51.650;-0.522;2023-04-29T08:11:05;101185.00;;;14.40
68911;BMP180;55953;51.650;-0.522;2023-04-29T08:13:36;101178.80;;;14.64
68911;BMP180;55953;51.650;-0.522;2023-04-29T08:16:04;101172.60;;;15.02
68911;BMP180;55953;51.650;-0.522;2023-04-29T08:18:33;101170.20;;;15.30
68911;BMP180;55953;51.650;-0.522;2023-04-29T08:21:02;101172.80;;;15.50
68911;BMP180;55953;51.650;-0.522;2023-04-29T08:23:30;101165.60;;;15.62
68911;BMP180;55953;51.650;-0.522;2023-04-29T08:25:59;101171.80;;;15.90
68911;BMP180;55953;51.650;-0.522;2023-04-29T08:28:26;101170.00;;;15.90
68911;BMP180;55953;51.650;-0.522;2023-04-29T08:30:54;101177.60;;;16.00
68911;BMP180;55953;51.650;-0.522;2023-04-29T08:33:23;101173.80;;;16.02
68911;BMP180;55953;51.650;-0.522;2023-04-29T08:35:57;101177.60;;;16.00
68911;BMP180;55953;51.650;-0.522;2023-04-29T08:38:26;101182.20;;;16.20
68911;BMP180;55953;51.650;-0.522;2023-04-29T08:40:55;101178.00;;;16.40
68911;BMP180;55953;51.650;-0.522;2023-04-29T08:43:24;101177.40;;;16.40
68911;BMP180;55953;51.650;-0.522;2023-04-29T08:45:52;101176.60;;;16.40
68911;BMP180;55953;51.650;-0.522;2023-04-29T08:48:21;101183.60;;;16.40
68911;BMP180;55953;51.650;-0.522;2023-04-29T08:50:49;101186.20;;;16.30
68911;BMP180;55953;51.650;-0.522;2023-04-29T08:53:17;101185.20;;;16.10
68911;BMP180;55953;51.650;-0.522;2023-04-29T08:55:47;101185.00;;;16.10
68911;BMP180;55953;51.650;-0.522;2023-04-29T08:58:15;101188.00;;;16.20
68911;BMP180;55953;51.650;-0.522;2023-04-29T09:00:44;101192.80;;;16.24
68911;BMP180;55953;51.650;-0.522;2023-04-29T09:06:33;101196.00;;;16.12
68911;BMP180;55953;51.650;-0.522;2023-04-29T09:09:02;101201.60;;;16.26
68911;BMP180;55953;51.650;-0.522;2023-04-29T09:11:31;101205.00;;;16.20
68911;BMP180;55953;51.650;-0.522;2023-04-29T09:14:01;101210.20;;;16.20
68911;BMP180;55953;51.650;-0.522;2023-04-29T09:16:29;101210.80;;;16.20
68911;BMP180;55953;51.650;-0.522;2023-04-29T09:18:57;101211.20;;;16.30
68911;BMP180;55953;51.650;-0.522;2023-04-29T09:21:27;101212.60;;;16.30
68911;BMP180;55953;51.650;-0.522;2023-04-29T09:23:59;101210.40;;;16.40
68911;BMP180;55953;51.650;-0.522;2023-04-29T09:26:34;101213.80;;;16.40
68911;BMP180;55953;51.650;-0.522;2023-04-29T09:29:09;101215.00;;;16.16
68911;BMP180;55953;51.650;-0.522;2023-04-29T09:31:44;101213.80;;;16.00
68911;BMP180;55953;51.650;-0.522;2023-04-29T09:34:13;101215.20;;;16.00
68911;BMP180;55953;51.650;-0.522;2023-04-29T09:36:50;101219.00;;;16.10
68911;BMP180;55953;51.650;-0.522;2023-04-29T09:39:22;101224.60;;;16.18
68911;BMP180;55953;51.650;-0.522;2023-04-29T09:44:27;101220.80;;;16.30
68911;BMP180;55953;51.650;-0.522;2023-04-29T09:47:06;101221.00;;;16.28
68911;BMP180;55953;51.650;-0.522;2023-04-29T09:49:37;101222.80;;;16.30
68911;BMP180;55953;51.650;-0.522;2023-04-29T09:52:13;101223.20;;;16.48
68911;BMP180;55953;51.650;-0.522;2023-04-29T09:54:43;101224.60;;;16.60
68911;BMP180;55953;51.650;-0.522;2023-04-29T09:57:12;101227.20;;;16.60
68911;BMP180;55953;51.650;-0.522;2023-04-29T09:59:42;101222.20;;;16.70
68911;BMP180;55953;51.650;-0.522;2023-04-29T10:02:17;101218.80;;;16.60
68911;BMP180;55953;51.650;-0.522;2023-04-29T10:04:53;101215.40;;;16.60
68911;BMP180;55953;51.650;-0.522;2023-04-29T10:07:24;101209.60;;;16.68
68911;BMP180;55953;51.650;-0.522;2023-04-29T10:09:55;101208.40;;;16.80
68911;BMP180;55953;51.650;-0.522;2023-04-29T10:12:24;101209.40;;;16.90
68911;BMP180;55953;51.650;-0.522;2023-04-29T10:18:18;101209.20;;;17.08
68911;BMP180;55953;51.650;-0.522;2023-04-29T10:20:47;101201.80;;;17.10
68911;BMP180;55953;51.650;-0.522;2023-04-29T10:23:16;101206.40;;;17.00
68911;BMP180;55953;51.650;-0.522;2023-04-29T10:25:47;101213.60;;;17.10
68911;BMP180;55953;51.650;-0.522;2023-04-29T10:28:16;101208.20;;;17.20
68911;BMP180;55953;51.650;-0.522;2023-04-29T10:30:49;101213.60;;;17.20
68911;BMP180;55953;51.650;-0.522;2023-04-29T10:33:18;101212.80;;;17.20
68911;BMP180;55953;51.650;-0.522;2023-04-29T10:35:47;101211.20;;;17.20
68911;BMP180;55953;51.650;-0.522;2023-04-29T10:38:32;101208.60;;;17.20
68911;BMP180;55953;51.650;-0.522;2023-04-29T10:41:27;101208.40;;;17.30
68911;BMP180;55953;51.650;-0.522;2023-04-29T10:43:58;101213.80;;;17.40
68911;BMP180;55953;51.650;-0.522;2023-04-29T10:46:29;101211.80;;;17.62
68911;BMP180;55953;51.650;-0.522;2023-04-29T10:49:02;101209.80;;;17.72
68911;BMP180;55953;51.650;-0.522;2023-04-29T10:51:44;101211.00;;;17.80
68911;BMP180;55953;51.650;-0.522;2023-04-29T10:54:15;101209.80;;;17.94
68911;BMP180;55953;51.650;-0.522;2023-04-29T10:56:51;101205.20;;;18.00
68911;BMP180;55953;51.650;-0.522;2023-04-29T11:01:54;101201.60;;;18.16
68911;BMP180;55953;51.650;-0.522;2023-04-29T11:04:22;101200.20;;;18.10
68911;BMP180;55953;51.650;-0.522;2023-04-29T11:06:55;101202.60;;;18.20
68911;BMP180;55953;51.650;-0.522;2023-04-29T11:09:26;101208.40;;;18.28
68911;BMP180;55953;51.650;-0.522;2023-04-29T11:14:50;101202.80;;;18.10
68911;BMP180;55953;51.650;-0.522;2023-04-29T11:17:18;101206.20;;;18.24
68911;BMP180;55953;51.650;-0.522;2023-04-29T11:19:51;101203.80;;;18.12
68911;BMP180;55953;51.650;-0.522;2023-04-29T11:22:27;101207.40;;;18.20
68911;BMP180;55953;51.650;-0.522;2023-04-29T11:25:05;101204.80;;;18.30
68911;BMP180;55953;51.650;-0.522;2023-04-29T11:27:40;101207.80;;;18.42
68911;BMP180;55953;51.650;-0.522;2023-04-29T11:30:10;101202.40;;;18.50
68911;BMP180;55953;51.650;-0.522;2023-04-29T11:32:40;101205.60;;;18.50
68911;BMP180;55953;51.650;-0.522;2023-04-29T11:35:15;101203.80;;;18.50
68911;BMP180;55953;51.650;-0.522;2023-04-29T11:37:45;101203.40;;;18.40
68911;BMP180;55953;51.650;-0.522;2023-04-29T11:40:14;101200.80;;;18.50
68911;BMP180;55953;51.650;-0.522;2023-04-29T11:42:47;101199.80;;;18.60
68911;BMP180;55953;51.650;-0.522;2023-04-29T11:45:17;101200.40;;;18.60
68911;BMP180;55953;51.650;-0.522;2023-04-29T11:47:47;101195.60;;;18.72
68911;BMP180;55953;51.650;-0.522;2023-04-29T11:50:17;101198.20;;;18.80
68911;BMP180;55953;51.650;-0.522;2023-04-29T11:52:48;101198.80;;;18.90
68911;BMP180;55953;51.650;-0.522;2023-04-29T11:55:18;101199.40;;;18.90
68911;BMP180;55953;51.650;-0.522;2023-04-29T11:57:48;101201.20;;;18.90
68911;BMP180;55953;51.650;-0.522;2023-04-29T12:00:18;101196.80;;;19.10
68911;BMP180;55953;51.650;-0.522;2023-04-29T12:02:46;101195.80;;;19.10
68911;BMP180;55953;51.650;-0.522;2023-04-29T12:05:15;101191.40;;;19.02
68911;BMP180;55953;51.650;-0.522;2023-04-29T12:07:44;101188.60;;;18.90
68911;BMP180;55953;51.650;-0.522;2023-04-29T12:10:12;101191.20;;;18.70
68911;BMP180;55953;51.650;-0.522;2023-04-29T12:12:41;101195.20;;;18.86
68911;BMP180;55953;51.650;-0.522;2023-04-29T12:15:11;101189.20;;;19.00
68911;BMP180;55953;51.650;-0.522;2023-04-29T12:17:41;101185.80;;;19.14
68911;BMP180;55953;51.650;-0.522;2023-04-29T12:20:10;101179.60;;;19.10
68911;BMP180;55953;51.650;-0.522;2023-04-29T12:22:40;101180.00;;;19.40
68911;BMP180;55953;51.650;-0.522;2023-04-29T12:25:10;101180.40;;;19.60
68911;BMP180;55953;51.650;-0.522;2023-04-29T12:27:39;101181.20;;;19.86
68911;BMP180;55953;51.650;-0.522;2023-04-29T12:30:11;101185.20;;;20.00
68911;BMP180;55953;51.650;-0.522;2023-04-29T12:32:39;101182.60;;;20.00
68911;BMP180;55953;51.650;-0.522;2023-04-29T12:35:16;101185.80;;;20.10
68911;BMP180;55953;51.650;-0.522;2023-04-29T12:37:48;101182.20;;;20.20
68911;BMP180;55953;51.650;-0.522;2023-04-29T12:40:17;101183.20;;;20.26
68911;BMP180;55953;51.650;-0.522;2023-04-29T12:42:47;101184.40;;;20.40
68911;BMP180;55953;51.650;-0.522;2023-04-29T12:45:32;101187.00;;;20.60
68911;BMP180;55953;51.650;-0.522;2023-04-29T12:48:01;101192.00;;;20.70
68911;BMP180;55953;51.650;-0.522;2023-04-29T12:50:38;101187.00;;;20.60
68911;BMP180;55953;51.650;-0.522;2023-04-29T12:53:07;101190.20;;;20.40
68911;BMP180;55953;51.650;-0.522;2023-04-29T12:55:37;101186.00;;;20.50
68911;BMP180;55953;51.650;-0.522;2023-04-29T12:58:05;101183.00;;;20.70
68911;BMP180;55953;51.650;-0.522;2023-04-29T13:00:34;101187.00;;;20.90
68911;BMP180;55953;51.650;-0.522;2023-04-29T13:03:04;101183.80;;;20.96
68911;BMP180;55953;51.650;-0.522;2023-04-29T13:05:32;101176.80;;;21.02
68911;BMP180;55953;51.650;-0.522;2023-04-29T13:08:00;101182.80;;;21.38
68911;BMP180;55953;51.650;-0.522;2023-04-29T13:10:28;101183.80;;;21.54
68911;BMP180;55953;51.650;-0.522;2023-04-29T13:12:56;101186.00;;;21.60
68911;BMP180;55953;51.650;-0.522;2023-04-29T13:15:25;101185.80;;;21.84
68911;BMP180;55953;51.650;-0.522;2023-04-29T13:17:53;101179.60;;;22.00
68911;BMP180;55953;51.650;-0.522;2023-04-29T13:20:22;101179.80;;;22.00
68911;BMP180;55953;51.650;-0.522;2023-04-29T13:22:50;101175.60;;;22.02
68911;BMP180;55953;51.650;-0.522;2023-04-29T13:25:18;101178.00;;;22.24
68911;BMP180;55953;51.650;-0.522;2023-04-29T13:27:46;101178.80;;;22.50
68911;BMP180;55953;51.650;-0.522;2023-04-29T13:30:14;101177.40;;;22.70
68911;BMP180;55953;51.650;-0.522;2023-04-29T13:32:41;101174.80;;;22.80
68911;BMP180;55953;51.650;-0.522;2023-04-29T13:35:21;101178.00;;;22.90
68911;BMP180;55953;51.650;-0.522;2023-04-29T13:37:49;101181.20;;;23.10
68911;BMP180;55953;51.650;-0.522;2023-04-29T13:40:17;101181.00;;;23.24
68911;BMP180;55953;51.650;-0.522;2023-04-29T13:42:48;101179.20;;;23.40
68911;BMP180;55953;51.650;-0.522;2023-04-29T13:45:28;101174.40;;;23.40
68911;BMP180;55953;51.650;-0.522;2023-04-29T13:47:57;101170.80;;;23.30
68911;BMP180;55953;51.650;-0.522;2023-04-29T13:50:42;101179.60;;;23.12
68911;BMP180;55953;51.650;-0.522;2023-04-29T13:53:14;101175.00;;;23.30
68911;BMP180;55953;51.650;-0.522;2023-04-29T13:55:46;101171.20;;;23.40
68911;BMP180;55953;51.650;-0.522;2023-04-29T13:58:17;101169.60;;;23.60
68911;BMP180;55953;51.650;-0.522;2023-04-29T14:00:48;101171.80;;;23.70
68911;BMP180;55953;51.650;-0.522;2023-04-29T14:03:19;101165.20;;;23.50
68911;BMP180;55953;51.650;-0.522;2023-04-29T14:05:47;101163.20;;;23.40
68911;BMP180;55953;51.650;-0.522;2023-04-29T14:08:15;101166.60;;;23.50
68911;BMP180;55953;51.650;-0.522;2023-04-29T14:10:42;101164.60;;;23.60
68911;BMP180;55953;51.650;-0.522;2023-04-29T14:13:10;101166.60;;;23.50
68911;BMP180;55953;51.650;-0.522;2023-04-29T14:15:38;101169.40;;;23.30
68911;BMP180;55953;51.650;-0.522;2023-04-29T14:18:06;101170.80;;;23.10
68911;BMP180;55953;51.650;-0.522;2023-04-29T14:20:36;101172.40;;;22.90
68911;BMP180;55953;51.650;-0.522;2023-04-29T14:23:04;101171.20;;;22.62
68911;BMP180;55953;51.650;-0.522;2023-04-29T14:25:32;101172.20;;;22.40
68911;BMP180;55953;51.650;-0.522;2023-04-29T14:28:00;101170.60;;;22.30
68911;BMP180;55953;51.650;-0.522;2023-04-29T14:30:28;101174.00;;;22.20
68911;BMP180;55953;51.650;-0.522;2023-04-29T14:32:56;101175.60;;;22.00
68911;BMP180;55953;51.650;-0.522;2023-04-29T14:35:24;101175.20;;;21.90
68911;BMP180;55953;51.650;-0.522;2023-04-29T14:37:52;101173.80;;;21.80
68911;BMP180;55953;51.650;-0.522;2023-04-29T14:40:20;101176.80;;;21.70